createdAt,value
2022-12-22T00:01:58.054Z,64.47
2022-12-22T00:05:20.227Z,65.06
2022-12-22T00:08:41.316Z,64.37
2022-12-22T00:12:04.217Z,64.40
2022-12-22T00:15:31.763Z,65.00
2022-12-22T00:18:53.636Z,65.93
2022-12-22T00:22:19.694Z,65.71
2022-12-22T00:25:41.548Z,65.29
2022-12-22T00:29:02.848Z,65.47
2022-12-22T00:32:24.739Z,65.66
2022-12-22T00:35:46.154Z,66.42
2022-12-22T00:39:07.778Z,66.79
2022-12-22T00:42:28.967Z,66.18
2022-12-22T00:45:51.035Z,66.79
2022-12-22T00:49:12.464Z,66.12
2022-12-22T00:52:36.175Z,66.03
2022-12-22T00:55:57.836Z,66.31
2022-12-22T00:59:20.471Z,66.59
2022-12-22T01:02:41.461Z,66.88
2022-12-22T01:06:03.645Z,66.13
2022-12-22T01:09:25.082Z,66.75
2022-12-22T01:12:47.065Z,66.69
2022-12-22T01:16:08.392Z,66.74
2022-12-22T01:19:30.411Z,66.72
2022-12-22T01:22:52.012Z,66.51
2022-12-22T01:26:13.982Z,66.22
2022-12-22T01:29:35.688Z,66.51
2022-12-22T01:32:57.796Z,66.48
2022-12-22T01:36:19.060Z,66.23
2022-12-22T01:39:40.964Z,66.36
2022-12-22T01:43:02.427Z,66.75
2022-12-22T01:47:03.788Z,66.94
2022-12-22T01:50:25.681Z,67.31
2022-12-22T01:53:49.021Z,67.18
2022-12-22T01:57:10.500Z,66.85
2022-12-22T02:00:32.536Z,67.44
2022-12-22T02:03:54.211Z,67.54
2022-12-22T02:07:26.075Z,67.94
2022-12-22T02:10:58.099Z,68.46
2022-12-22T02:14:33.296Z,68.62
2022-12-22T02:18:09.077Z,68.32
2022-12-22T02:21:37.042Z,68.25
2022-12-22T02:25:05.520Z,68.97
2022-12-22T02:28:31.355Z,69.16
2022-12-22T02:31:55.235Z,68.49
2022-12-22T02:35:16.757Z,68.39
2022-12-22T02:38:52.602Z,69.04
2022-12-22T02:42:45.728Z,69.20
2022-12-22T02:46:28.986Z,68.91
2022-12-22T02:50:04.957Z,69.19
2022-12-22T02:53:27.867Z,68.69
2022-12-22T02:56:49.632Z,69.01
2022-12-22T03:00:11.081Z,68.66
2022-12-22T03:03:33.238Z,68.65
2022-12-22T03:06:54.637Z,68.44
2022-12-22T03:10:16.326Z,67.86
2022-12-22T03:13:37.668Z,67.35
2022-12-22T03:16:59.538Z,67.06
2022-12-22T03:20:20.896Z,67.48
2022-12-22T03:23:42.512Z,66.60
2022-12-22T03:26:45.068Z,66.75
2022-12-22T03:29:48.240Z,67.68
2022-12-22T03:32:50.727Z,67.39
2022-12-22T03:35:53.934Z,67.37
2022-12-22T03:38:56.414Z,67.69
2022-12-22T03:42:18.298Z,67.24
2022-12-22T03:45:39.503Z,67.19
2022-12-22T03:48:43.105Z,68.21
2022-12-22T03:51:51.022Z,69.33
2022-12-22T03:54:54.173Z,69.92
2022-12-22T03:57:56.759Z,69.80
2022-12-22T04:01:08.084Z,70.63
2022-12-22T04:04:12.401Z,71.29
2022-12-22T04:07:15.195Z,71.70
2022-12-22T04:10:36.726Z,72.38
2022-12-22T04:13:39.568Z,73.23
2022-12-22T04:16:42.711Z,72.55
2022-12-22T04:19:45.802Z,72.33
2022-12-22T04:22:49.062Z,72.49
2022-12-22T04:25:51.960Z,72.69
2022-12-22T04:28:55.479Z,72.91
2022-12-22T04:31:58.220Z,72.94
2022-12-22T04:35:00.969Z,72.68
2022-12-22T04:38:03.767Z,73.11
2022-12-22T04:41:07.514Z,73.74
2022-12-22T04:44:10.328Z,74.19
2022-12-22T04:47:13.278Z,74.64
2022-12-22T04:50:16.235Z,74.27
2022-12-22T04:53:19.122Z,73.44
2022-12-22T04:56:21.983Z,73.89
2022-12-22T04:59:24.832Z,74.68
2022-12-22T05:02:27.772Z,75.20
2022-12-22T05:05:30.720Z,75.64
2022-12-22T05:08:33.701Z,75.81
2022-12-22T05:11:36.660Z,75.93
2022-12-22T05:14:39.430Z,76.29
2022-12-22T05:17:42.204Z,76.65
2022-12-22T05:20:45.061Z,76.80
2022-12-22T05:23:48.429Z,76.50
2022-12-22T05:26:51.281Z,76.50
2022-12-22T05:29:54.150Z,76.62
2022-12-22T05:32:56.995Z,76.30
2022-12-22T05:35:59.943Z,76.91
2022-12-22T05:39:02.866Z,76.25
2022-12-22T05:42:05.825Z,75.42
2022-12-22T05:45:18.588Z,75.79
2022-12-22T05:48:28.299Z,75.00
2022-12-22T05:51:33.927Z,75.53
2022-12-22T05:54:36.718Z,74.53
2022-12-22T05:57:39.578Z,75.34
2022-12-22T06:00:42.390Z,76.93
2022-12-22T06:03:45.571Z,78.11
2022-12-22T06:06:48.163Z,78.57
2022-12-22T06:09:51.357Z,78.43
2022-12-22T06:12:54.129Z,78.46
2022-12-22T06:15:57.311Z,76.54
2022-12-22T06:18:59.864Z,77.82
2022-12-22T06:22:03.671Z,77.60
2022-12-22T06:25:06.528Z,77.97
2022-12-22T06:28:09.496Z,76.79
2022-12-22T06:31:11.877Z,77.27
2022-12-22T06:34:17.949Z,76.75
2022-12-22T06:37:20.459Z,76.63
2022-12-22T06:40:23.532Z,77.79
2022-12-22T06:43:26.352Z,78.70
2022-12-22T06:46:29.477Z,78.35
2022-12-22T06:49:32.094Z,76.94
2022-12-22T06:52:35.328Z,78.46
2022-12-22T06:55:38.290Z,79.09
2022-12-22T06:58:41.222Z,78.81
2022-12-22T07:01:43.737Z,78.88
2022-12-22T07:04:47.003Z,79.24
2022-12-22T07:07:50.009Z,79.12
2022-12-22T07:10:59.305Z,79.19
2022-12-22T07:14:01.825Z,79.55
2022-12-22T07:17:04.901Z,79.22
2022-12-22T07:20:08.076Z,78.42
2022-12-22T07:23:12.145Z,77.83
2022-12-22T07:26:14.853Z,77.59
2022-12-22T07:29:17.939Z,76.95
2022-12-22T07:32:20.421Z,75.21
2022-12-22T07:35:23.683Z,75.69
2022-12-22T07:38:26.196Z,75.79
2022-12-22T07:41:47.845Z,75.28
2022-12-22T07:44:50.376Z,75.29
2022-12-22T07:47:59.998Z,75.04
2022-12-22T07:51:06.407Z,75.36
2022-12-22T07:54:12.697Z,75.88
2022-12-22T07:57:15.201Z,75.83
2022-12-22T08:00:20.024Z,75.70
2022-12-22T08:03:23.179Z,75.68
2022-12-22T08:06:26.584Z,75.45
2022-12-22T08:09:29.557Z,75.34
2022-12-22T08:12:32.731Z,75.15
2022-12-22T08:15:35.714Z,74.85
2022-12-22T08:18:38.838Z,74.61
2022-12-22T08:21:46.796Z,74.39
2022-12-22T08:24:54.810Z,74.28
2022-12-22T08:27:58.194Z,73.61
2022-12-22T08:31:02.172Z,73.67
2022-12-22T08:34:08.140Z,73.34
2022-12-22T08:37:16.105Z,73.25
2022-12-22T08:40:26.506Z,73.19
2022-12-22T08:43:31.516Z,73.03
2022-12-22T08:46:34.614Z,71.91
2022-12-22T08:49:37.500Z,71.08
2022-12-22T08:52:40.348Z,71.80
2022-12-22T08:55:52.718Z,71.65
2022-12-22T08:58:55.666Z,71.82
2022-12-22T09:01:58.664Z,71.39
2022-12-22T09:05:01.672Z,71.02
2022-12-22T09:08:05.603Z,70.90
2022-12-22T09:11:08.488Z,69.77
2022-12-22T09:14:12.680Z,70.59
2022-12-22T09:17:15.533Z,68.90
2022-12-22T09:20:18.523Z,70.11
2022-12-22T09:23:21.398Z,69.38
2022-12-22T09:26:26.860Z,69.83
2022-12-22T09:29:30.779Z,70.37
2022-12-22T09:32:33.594Z,71.74
2022-12-22T09:35:41.560Z,70.18
2022-12-22T09:38:44.832Z,71.90
2022-12-22T09:41:51.235Z,69.82
2022-12-22T09:44:54.419Z,70.57
2022-12-22T09:47:57.307Z,68.57
2022-12-22T09:51:00.178Z,70.73
2022-12-22T09:54:03.222Z,69.48
2022-12-22T09:57:11.658Z,70.54
2022-12-22T10:00:16.550Z,71.62
2022-12-22T10:03:33.212Z,71.43
2022-12-22T10:06:53.861Z,71.42
2022-12-22T10:09:57.423Z,72.21
2022-12-22T10:13:02.174Z,72.95
2022-12-22T10:16:23.187Z,72.78
2022-12-22T10:19:25.920Z,72.49
2022-12-22T10:22:31.810Z,71.94
2022-12-22T10:26:08.869Z,70.87
2022-12-22T10:29:01.261Z,68.32
2022-12-22T10:32:15.288Z,67.91
2022-12-22T10:35:18.935Z,68.08
2022-12-22T10:38:22.304Z,67.28
2022-12-22T10:41:29.075Z,66.43
2022-12-22T10:44:37.261Z,66.12
2022-12-22T10:47:49.013Z,66.17
2022-12-22T10:50:51.893Z,66.16
2022-12-22T10:53:56.491Z,66.09
2022-12-22T10:57:02.174Z,65.74
2022-12-22T11:00:23.704Z,65.01
2022-12-22T11:03:31.329Z,64.05
2022-12-22T11:06:34.604Z,61.41
2022-12-22T11:09:37.318Z,58.88
2022-12-22T11:13:22.478Z,55.01
2022-12-22T11:16:24.992Z,48.73
2022-12-22T11:20:18.835Z,46.62
2022-12-22T11:23:39.073Z,43.86
2022-12-22T11:27:17.217Z,44.86
2022-12-22T11:30:46.246Z,43.38
2022-12-22T11:34:21.544Z,45.38
2022-12-22T11:37:45.718Z,48.17
2022-12-22T11:40:59.050Z,50.67
2022-12-22T11:44:10.627Z,53.59
2022-12-22T11:47:41.633Z,57.02
2022-12-22T11:51:01.336Z,58.90
2022-12-22T11:54:15.804Z,61.16
2022-12-22T11:57:52.060Z,61.82
2022-12-22T12:01:17.937Z,63.17
2022-12-22T12:04:56.087Z,63.29
2022-12-22T12:08:24.172Z,64.28
2022-12-22T12:11:39.027Z,64.75
2022-12-22T12:14:57.130Z,66.51
2022-12-22T12:18:18.023Z,65.49
2022-12-22T12:21:42.224Z,66.93
2022-12-22T12:25:13.435Z,67.82
2022-12-22T12:28:29.498Z,68.34
2022-12-22T12:31:38.149Z,68.66
2022-12-22T12:34:45.757Z,68.57
2022-12-22T12:37:54.342Z,68.28
2022-12-22T12:41:10.093Z,66.89
2022-12-22T12:44:15.920Z,67.64
2022-12-22T12:47:25.537Z,67.65
2022-12-22T12:50:35.060Z,67.82
2022-12-22T12:54:16.294Z,68.13
2022-12-22T12:57:26.584Z,68.33
2022-12-22T13:00:32.596Z,68.69
2022-12-22T13:07:01.965Z,68.81
2022-12-22T13:10:18.709Z,68.52
2022-12-22T13:13:21.461Z,68.29
2022-12-22T13:16:27.383Z,68.77
2022-12-22T13:19:30.989Z,68.97
2022-12-22T13:22:34.189Z,69.00
2022-12-22T13:25:51.411Z,69.21
2022-12-22T13:29:10.007Z,69.71
2022-12-22T13:32:22.325Z,69.78
2022-12-22T13:35:32.587Z,69.70
2022-12-22T13:38:37.750Z,70.00
2022-12-22T13:41:44.214Z,68.10
2022-12-22T13:44:47.133Z,69.38
2022-12-22T13:47:50.931Z,70.43
2022-12-22T13:50:56.827Z,70.44
2022-12-22T13:54:10.883Z,70.88
2022-12-22T13:57:21.781Z,71.56
2022-12-22T14:00:27.080Z,71.76
2022-12-22T14:06:54.712Z,72.14
2022-12-22T14:09:58.331Z,72.39
2022-12-22T14:13:06.674Z,73.12
2022-12-22T14:16:14.219Z,72.39
2022-12-22T14:19:17.761Z,73.42
2022-12-22T14:22:29.231Z,73.66
2022-12-22T14:25:35.561Z,74.69
2022-12-22T14:28:50.181Z,74.76
2022-12-22T14:31:56.646Z,74.15
2022-12-22T14:34:59.919Z,75.30
2022-12-22T14:38:05.233Z,75.84
2022-12-22T14:41:38.665Z,75.43
2022-12-22T14:44:47.208Z,74.37
2022-12-22T14:47:51.727Z,74.13
2022-12-22T14:50:55.989Z,74.16
2022-12-22T14:54:02.977Z,75.18
2022-12-22T14:57:16.564Z,76.33
2022-12-22T15:00:23.052Z,77.03
2022-12-22T15:03:25.667Z,78.14
2022-12-22T15:06:28.822Z,78.77
2022-12-22T15:10:13.168Z,79.98
2022-12-22T15:12:59.857Z,80.42
2022-12-22T15:16:02.884Z,80.29
2022-12-22T15:19:11.141Z,81.54
2022-12-22T15:22:13.754Z,82.59
2022-12-22T15:25:26.433Z,83.21
2022-12-22T15:28:29.138Z,83.44
2022-12-22T15:31:32.469Z,83.75
2022-12-22T15:34:35.213Z,84.02
2022-12-22T15:37:38.714Z,84.12
2022-12-22T15:40:41.532Z,82.83
2022-12-22T15:44:00.150Z,83.09
2022-12-22T15:47:03.214Z,83.98
2022-12-22T15:50:08.191Z,84.29
2022-12-22T15:53:17.572Z,85.39
2022-12-22T15:56:22.950Z,85.11
2022-12-22T15:59:27.816Z,85.57
2022-12-22T16:02:31.090Z,86.13
2022-12-22T16:05:34.380Z,86.39
2022-12-22T16:08:39.048Z,86.93
2022-12-22T16:11:42.220Z,87.05
2022-12-22T16:14:52.028Z,87.39
2022-12-22T16:17:55.030Z,87.09
2022-12-22T16:21:12.371Z,86.71
2022-12-22T16:24:43.933Z,86.64
2022-12-22T16:27:49.287Z,87.16
2022-12-22T16:30:53.031Z,87.65
2022-12-22T16:33:55.924Z,87.80
2022-12-22T16:36:58.714Z,87.36
2022-12-22T16:40:02.014Z,87.34
2022-12-22T16:46:42.155Z,87.47
2022-12-22T16:49:49.196Z,87.70
2022-12-22T16:52:52.170Z,88.01
2022-12-22T16:55:55.634Z,88.85
2022-12-22T16:58:58.780Z,89.57
2022-12-22T17:02:01.917Z,89.84
2022-12-22T17:05:06.241Z,90.72
2022-12-22T17:08:19.564Z,91.32
2022-12-22T17:11:25.101Z,90.69
2022-12-22T17:14:35.126Z,91.38
2022-12-22T17:17:42.160Z,91.75
2022-12-22T17:20:47.612Z,92.29
2022-12-22T17:23:52.674Z,91.84
2022-12-22T17:27:02.398Z,92.39
2022-12-22T17:30:18.080Z,93.18
2022-12-22T17:33:21.773Z,92.18
2022-12-22T17:36:37.302Z,91.92
2022-12-22T17:39:40.813Z,92.40
2022-12-22T17:42:43.663Z,92.58
2022-12-22T17:45:47.363Z,91.84
2022-12-22T17:48:50.909Z,92.16
2022-12-22T17:51:53.645Z,92.03
2022-12-22T17:54:56.585Z,91.65
2022-12-22T17:57:59.468Z,92.79
2022-12-22T18:01:02.269Z,92.96
2022-12-22T18:04:09.652Z,92.82
2022-12-22T18:07:15.689Z,91.69
2022-12-22T18:10:37.110Z,92.26
2022-12-22T18:13:40.260Z,92.51
2022-12-22T18:16:45.996Z,93.12
2022-12-22T18:19:49.195Z,91.42
2022-12-22T18:23:02.053Z,91.68
2022-12-22T18:26:08.446Z,92.62
2022-12-22T18:29:18.106Z,92.46
2022-12-22T18:32:27.539Z,92.91
2022-12-22T18:35:30.917Z,93.65
2022-12-22T18:38:38.525Z,92.83
2022-12-22T18:41:41.529Z,92.95
2022-12-22T18:44:44.411Z,93.11
2022-12-22T18:47:47.773Z,93.80
2022-12-22T18:50:50.717Z,94.54
2022-12-22T18:53:54.702Z,95.59
2022-12-22T18:56:58.266Z,95.63
2022-12-22T19:00:19.862Z,95.87
2022-12-22T19:03:25.805Z,95.92
2022-12-22T19:06:28.789Z,96.01
2022-12-22T19:09:31.777Z,95.81
2022-12-22T19:12:34.763Z,95.17
2022-12-22T19:15:38.668Z,94.66
2022-12-22T19:18:41.960Z,94.33
2022-12-22T19:21:46.006Z,94.07
2022-12-22T19:24:49.151Z,93.93
2022-12-22T19:27:54.624Z,93.25
2022-12-22T19:30:57.791Z,93.25
2022-12-22T19:34:04.611Z,94.04
2022-12-22T19:37:09.107Z,93.98
2022-12-22T19:40:14.339Z,94.47
2022-12-22T19:43:18.912Z,93.58
2022-12-22T19:46:25.682Z,93.04
2022-12-22T19:49:29.553Z,93.87
2022-12-22T19:52:35.603Z,93.41
2022-12-22T19:55:42.902Z,93.51
2022-12-22T19:58:46.093Z,93.98
2022-12-22T20:01:49.113Z,92.68
2022-12-22T20:04:53.227Z,93.04
2022-12-22T20:08:01.744Z,93.06
2022-12-22T20:11:13.060Z,93.05
2022-12-22T20:14:18.127Z,93.98
2022-12-22T20:17:21.602Z,94.94
2022-12-22T20:20:31.689Z,95.59
2022-12-22T20:23:37.333Z,94.93
2022-12-22T20:26:39.825Z,96.33
2022-12-22T20:29:42.998Z,97.21
2022-12-22T20:32:45.667Z,97.82
2022-12-22T20:35:50.653Z,97.71
2022-12-22T20:38:57.247Z,99.02
2022-12-22T20:42:00.356Z,100.00
2022-12-22T20:45:04.874Z,100.00
2022-12-22T20:48:18.781Z,100.00
2022-12-22T20:51:23.628Z,100.00
2022-12-22T20:54:27.532Z,100.00
2022-12-22T20:57:30.100Z,100.00
2022-12-22T21:00:33.202Z,98.31
2022-12-22T21:03:36.006Z,98.35
2022-12-22T21:06:42.749Z,99.75
2022-12-22T21:09:45.179Z,98.21
2022-12-22T21:12:49.097Z,98.11
2022-12-22T21:15:52.080Z,99.61
2022-12-22T21:18:55.044Z,98.75
2022-12-22T21:21:57.519Z,97.57
2022-12-22T21:25:00.713Z,97.77
2022-12-22T21:28:03.792Z,98.69
2022-12-22T21:31:07.556Z,100.00
2022-12-22T21:34:11.170Z,100.00
2022-12-22T21:37:19.969Z,100.00
2022-12-22T21:40:25.864Z,100.00
2022-12-22T21:43:29.282Z,100.00
2022-12-22T21:46:32.062Z,100.00
2022-12-22T21:49:35.301Z,100.00
2022-12-22T21:52:37.934Z,100.00
2022-12-22T21:55:41.918Z,100.00
2022-12-22T21:58:44.529Z,100.00
2022-12-22T22:01:48.162Z,100.00
2022-12-22T22:04:54.955Z,100.00
2022-12-22T22:07:59.668Z,100.00
2022-12-22T22:11:02.473Z,100.00
2022-12-22T22:14:05.349Z,99.95
2022-12-22T22:17:10.805Z,99.79
2022-12-22T22:20:16.186Z,98.84
2022-12-22T22:23:18.986Z,98.72
2022-12-22T22:26:21.812Z,98.75
2022-12-22T22:29:24.756Z,98.58
2022-12-22T22:32:27.591Z,98.55
2022-12-22T22:35:30.594Z,98.57
2022-12-22T22:38:36.034Z,97.22
2022-12-22T22:41:43.124Z,97.49
2022-12-22T22:44:46.780Z,97.77
2022-12-22T22:47:51.353Z,97.37
2022-12-22T22:50:54.163Z,97.97
2022-12-22T22:53:57.019Z,97.95
2022-12-22T22:56:59.877Z,98.04
2022-12-22T23:00:02.703Z,98.24
2022-12-22T23:03:06.478Z,97.50
2022-12-22T23:06:13.315Z,97.67
2022-12-22T23:09:16.301Z,98.50
2022-12-22T23:12:19.212Z,98.91
2022-12-22T23:15:22.093Z,99.06
2022-12-22T23:18:25.368Z,98.95
2022-12-22T23:21:28.309Z,98.80
2022-12-22T23:24:31.507Z,98.54
2022-12-22T23:27:34.415Z,98.28
2022-12-22T23:30:42.497Z,98.10
2022-12-22T23:33:45.319Z,97.91
2022-12-22T23:36:48.284Z,97.60
2022-12-22T23:39:51.083Z,97.59
2022-12-22T23:42:57.067Z,98.21
2022-12-22T23:46:00.380Z,98.35
2022-12-22T23:49:03.257Z,98.37
2022-12-22T23:52:06.104Z,98.42
2022-12-22T23:55:09.419Z,98.65
2022-12-22T23:58:12.413Z,99.00
